Vischer Ferry, New York
Current Conditions -  °F | °C
As of 9:50 PM on Tuesday 21 Oct 2014 (Local Time) from KSCH Reporting Station
Drizzle Drizzle  
Wind Chill: 50°   Ceiling: 1200
Heat Index: 50°   Visibility: 10mi
Dew Point: 46°   Wind: 7mph
Humidity: 87%   Direction: 40°NE
Pressure: 30.01"   Gusts: NA
Location:  42.8404°N, 73.8521°W
Report Text: KSCH 220150Z 04006KT 10SM -DZ BKN012 OVC050 10/08 A3001
Loading
Personal Weather Stations






























Interactive Weather Map
Tropical Storm Tracking
New forecast layout! Learn more

10-Day Weather Forecast

Advertisements
Track Severe Weather on mobile